Latest Weather Observations for Hay Point

IDQ60801

Issued at 2:35 am EST Sunday 26 October 2014 (issued every 30 minutes, with the page automatically refreshed every 10 minutes)

About weather observations | Map of weather stations | Latest weather observations for QLD | Other Formats
Station Details ID: 033317 Name: HAY POINT Lat: -21.29 Lon: 149.30 Height: 7.0 m
Data from the previous 72 hours. | See also: Recent months for locations in Queensland
Date/Time
EST
Temp
°C
App
Temp
°C
Dew
Point
Rel
Hum
%
Delta-T
°C
Wind Press
QNH
hPa
Press
MSL
hPa
Rain
since 9 am
mm
Dir
 
Spd
km/h
Gust
km/h
Spd
kts
Gust
kts
26/02:30am - - - - - NW 9 13 5 7 - - -
26/02:00am - - - - - NW 9 11 5 6 - - -
26/01:30am - - - - - NNE 13 17 7 9 - - -
26/01:00am - - - - - NNE 13 17 7 9 - - -
26/12:30am - - - - - NNE 13 15 7 8 - - -
26/12:00am - - - - - NE 15 19 8 10 - - -
 
Date/Time
EST
Temp
°C
App
Temp
°C
Dew
Point
Rel
Hum
%
Delta-T
°C
Wind Press
QNH
hPa
Press
MSL
hPa
Rain
since 9 am
mm
Dir
 
Spd
km/h
Gust
km/h
Spd
kts
Gust
kts
25/11:30pm - - - - - NE 15 17 8 9 - - -
25/11:00pm - - - - - ENE 13 15 7 8 - - -
25/10:30pm - - - - - ENE 13 17 7 9 - - -
25/10:00pm - - - - - ENE 13 15 7 8 - - -
25/09:30pm - - - - - ENE 13 17 7 9 - - -
25/09:00pm - - - - - ENE 13 17 7 9 - - -
25/08:30pm - - - - - ENE 15 19 8 10 - - -
25/08:00pm - - - - - ENE 15 17 8 9 - - -
25/07:30pm - - - - - ENE 17 19 9 10 - - -
25/07:00pm - - - - - NE 19 22 10 12 - - -
25/06:30pm - - - - - ENE 19 22 10 12 - - -
25/06:00pm - - - - - ENE 19 20 10 11 - - -
25/05:30pm - - - - - ENE 19 22 10 12 - - -
25/05:00pm - - - - - E 20 24 11 13 - - -
25/04:30pm - - - - - E 24 30 13 16 - - -
25/04:00pm - - - - - E 22 28 12 15 - - -
25/03:30pm - - - - - E 24 30 13 16 - - -
25/03:00pm - - - - - E 22 26 12 14 - - -
25/02:30pm - - - - - E 24 26 13 14 - - -
25/02:00pm - - - - - E 26 30 14 16 - - -
25/01:30pm - - - - - ESE 17 22 9 12 - - -
25/01:00pm - - - - - ESE 15 20 8 11 - - -
25/12:30pm - - - - - ESE 19 22 10 12 - - -
25/12:00pm - - - - - SE 17 20 9 11 - - -
25/11:30am - - - - - SSE 17 19 9 10 - - -
25/11:00am - - - - - SSE 13 17 7 9 - - -
25/10:30am - - - - - SSE 13 15 7 8 - - -
25/10:00am - - - - - SE 11 15 6 8 - - -
25/09:30am - - - - - E 9 13 5 7 - - -
25/09:00am - - - - - E 11 15 6 8 - - -
25/08:30am - - - - - SSE 9 13 5 7 - - -
25/08:00am - - - - - SSE 9 11 5 6 - - -
25/07:30am - - - - - S 9 11 5 6 - - -
25/07:00am - - - - - SSW 11 13 6 7 - - -
25/06:30am - - - - - SW 15 15 8 8 - - -
25/06:00am - - - - - SW 13 15 7 8 - - -
25/05:30am - - - - - SW 13 15 7 8 - - -
25/05:00am - - - - - SW 13 15 7 8 - - -
25/04:30am - - - - - SW 13 15 7 8 - - -
25/04:00am - - - - - SW 13 13 7 7 - - -
25/03:30am - - - - - SW 13 15 7 8 - - -
25/03:00am - - - - - S 7 15 4 8 - - -
25/02:30am - - - - - SE 11 15 6 8 - - -
25/02:00am - - - - - E 19 24 10 13 - - -
25/01:30am - - - - - E 19 22 10 12 - - -
25/01:00am - - - - - ESE 17 20 9 11 - - -
25/12:30am - - - - - ESE 17 22 9 12 - - -
25/12:00am - - - - - ESE 17 20 9 11 - - -
 
Date/Time
EST
Temp
°C
App
Temp
°C
Dew
Point
Rel
Hum
%
Delta-T
°C
Wind Press
QNH
hPa
Press
MSL
hPa
Rain
since 9 am
mm
Dir
 
Spd
km/h
Gust
km/h
Spd
kts
Gust
kts
24/11:30pm - - - - - ESE 20 28 11 15 - - -
24/11:00pm - - - - - E 19 22 10 12 - - -
24/10:30pm - - - - - ESE 22 30 12 16 - - -
24/10:00pm - - - - - ESE 22 28 12 15 - - -
24/09:30pm - - - - - ESE 20 26 11 14 - - -
24/09:00pm - - - - - E 20 26 11 14 - - -
24/08:30pm - - - - - E 20 24 11 13 - - -
24/08:00pm - - - - - E 20 26 11 14 - - -
24/07:30pm - - - - - E 19 24 10 13 - - -
24/07:00pm - - - - - E 17 20 9 11 - - -
24/06:30pm - - - - - E 17 20 9 11 - - -
24/06:00pm - - - - - E 17 22 9 12 - - -
24/05:30pm - - - - - E 17 20 9 11 - - -
24/05:00pm - - - - - E 17 19 9 10 - - -
24/04:30pm - - - - - E 17 19 9 10 - - -
24/04:00pm - - - - - SE 15 19 8 10 - - -
24/03:30pm - - - - - SSE 15 20 8 11 - - -
24/03:00pm - - - - - SE 19 26 10 14 - - -
24/02:30pm - - - - - SE 17 24 9 13 - - -
24/02:00pm - - - - - ESE 19 26 10 14 - - -
24/01:30pm - - - - - SE 20 28 11 15 - - -
24/01:00pm - - - - - SE 20 26 11 14 - - -
24/12:30pm - - - - - ESE 20 26 11 14 - - -
24/12:00pm - - - - - SE 19 24 10 13 - - -
24/11:30am - - - - - SE 17 24 9 13 - - -
24/11:00am - - - - - ESE 17 22 9 12 - - -
24/10:30am - - - - - ESE 17 22 9 12 - - -
24/10:00am - - - - - E 17 22 9 12 - - -
24/09:30am - - - - - ESE 13 19 7 10 - - -
24/09:00am - - - - - SSE 13 17 7 9 - - -
24/08:30am - - - - - SSE 15 19 8 10 - - -
24/08:00am - - - - - S 15 19 8 10 - - -
24/07:30am - - - - - SSW 11 15 6 8 - - -
24/07:00am - - - - - SSW 13 15 7 8 - - -
24/06:30am - - - - - SW 15 17 8 9 - - -
24/06:00am - - - - - SW 15 17 8 9 - - -
24/05:30am - - - - - SSW 11 13 6 7 - - -
24/05:00am - - - - - SW 15 17 8 9 - - -
24/04:30am - - - - - SW 13 17 7 9 - - -
24/04:00am - - - - - SW 13 15 7 8 - - -
24/03:30am - - - - - SW 13 13 7 7 - - -
24/03:00am - - - - - SW 13 17 7 9 - - -
24/02:30am - - - - - SW 13 15 7 8 - - -
24/02:00am - - - - - SW 11 15 6 8 - - -
24/01:30am - - - - - SW 11 13 6 7 - - -
24/01:00am - - - - - SSW 9 11 5 6 - - -
24/12:30am - - - - - SSW 9 11 5 6 - - -
24/12:00am - - - - - SW 11 13 6 7 - - -
 
Date/Time
EST
Temp
°C
App
Temp
°C
Dew
Point
Rel
Hum
%
Delta-T
°C
Wind Press
QNH
hPa
Press
MSL
hPa
Rain
since 9 am
mm
Dir
 
Spd
km/h
Gust
km/h
Spd
kts
Gust
kts
23/11:30pm - - - - - SW 9 13 5 7 - - -
23/11:00pm - - - - - E 9 13 5 7 - - -
23/10:30pm - - - - - E 11 15 6 8 - - -
23/10:00pm - - - - - E 13 19 7 10 - - -
23/09:30pm - - - - - E 17 20 9 11 - - -
23/09:00pm - - - - - E 20 26 11 14 - - -
23/08:30pm - - - - - E 22 28 12 15 - - -
23/08:00pm - - - - - E 26 30 14 16 - - -
23/07:30pm - - - - - E 26 30 14 16 - - -
23/07:00pm - - - - - E 22 30 12 16 - - -
23/06:30pm - - - - - E 20 26 11 14 - - -
23/06:00pm - - - - - E 17 20 9 11 - - -
23/05:30pm - - - - - E 17 24 9 13 - - -
23/05:00pm - - - - - E 19 24 10 13 - - -
23/04:30pm - - - - - E 19 26 10 14 - - -
23/04:00pm - - - - - E 20 26 11 14 - - -
23/03:30pm - - - - - ESE 22 28 12 15 - - -
23/03:00pm - - - - - ESE 22 30 12 16 - - -
23/02:30pm - - - - - ESE 26 32 14 17 - - -
23/02:00pm - - - - - SE 24 30 13 16 - - -
23/01:30pm - - - - - SE 26 33 14 18 - - -
23/01:00pm - - - - - SE 22 32 12 17 - - -
23/12:30pm - - - - - SE 24 32 13 17 - - -
23/12:00pm - - - - - SE 22 32 12 17 - - -
23/11:30am - - - - - SE 28 35 15 19 - - -
23/11:00am - - - - - SE 26 32 14 17 - - -
23/10:30am - - - - - SE 30 35 16 19 - - -
23/10:00am - - - - - SSE 30 37 16 20 - - -
23/09:30am - - - - - SSE 33 41 18 22 - - -
23/09:00am - - - - - SSE 32 39 17 21 - - -
23/08:30am - - - - - SSE 32 41 17 22 - - -
23/08:00am - - - - - SSE 32 39 17 21 - - -
23/07:30am - - - - - SSW 24 32 13 17 - - -
23/07:00am - - - - - SSW 20 26 11 14 - - -
23/06:30am - - - - - SW 17 20 9 11 - - -
23/06:00am - - - - - SW 17 20 9 11 - - -
23/05:30am - - - - - SW 17 20 9 11 - - -
23/05:00am - - - - - S 24 30 13 16 - - -
23/04:30am - - - - - SSW 17 28 9 15 - - -
23/04:00am - - - - - S 20 26 11 14 - - -
23/03:30am - - - - - S 19 24 10 13 - - -
23/03:00am - - - - - SSW 17 20 9 11 - - -

Other Formats:

Comma delimited format used in spreadsheet applications
http://www.bom.gov.au/fwo/IDQ60801/IDQ60801.99367.axf

JavaScript Object Notation format (JSON) in row-major order
http://www.bom.gov.au/fwo/IDQ60801/IDQ60801.99367.json